Time;durP1;ratioP1;P1;durP2;ratioP2;P2;SDS_P1;SDS_P2;PMS_P1;PMS_P2;Temp;Humidity;BMP_temperature;BMP_pressure;BME280_temperature;BME280_humidity;BME280_pressure;Samples;Min_cycle;Max_cycle;Signal;HPM_P1;HPM_P2
2021/12/25 00:01:47;;;;;;;8.60;3.37;;;;;;;-5.46;87.47;100029.61;1658339;86;21563;-81
2021/12/25 00:04:14;;;;;;;6.90;3.37;;;;;;;-5.48;87.42;100038.83;1658420;85;21451;-81
2021/12/25 00:06:41;;;;;;;8.28;2.92;;;;;;;-5.49;87.35;100048.20;1658219;86;22435;-81
2021/12/25 00:09:07;;;;;;;5.55;3.05;;;;;;;-5.51;87.28;100054.00;1658209;86;21067;-82
2021/12/25 00:11:34;;;;;;;7.10;2.98;;;;;;;-5.53;87.19;100061.96;1657745;84;21152;-80
2021/12/25 00:14:01;;;;;;;6.62;3.15;;;;;;;-5.54;87.22;100064.89;1657896;86;21058;-76
2021/12/25 00:16:27;;;;;;;6.20;3.37;;;;;;;-5.55;87.15;100069.53;1658083;86;21681;-77
2021/12/25 00:18:54;;;;;;;6.50;2.92;;;;;;;-5.56;87.14;100073.25;1658364;85;21704;-81
2021/12/25 00:21:21;;;;;;;8.00;3.12;;;;;;;-5.56;87.13;100071.57;1658555;86;21617;-82
2021/12/25 00:23:50;;;;;;;9.35;3.70;;;;;;;-5.58;86.96;100079.53;1658439;85;21131;-81
2021/12/25 00:26:35;;;;;;;6.78;3.05;;;;;;;-5.60;86.86;100082.77;1658245;85;21727;-81
2021/12/25 00:28:54;;;;;;;9.60;3.62;;;;;;;-5.60;86.88;100084.05;1654751;86;21108;-81
2021/12/25 00:36:07;;;;;;;9.30;3.40;;;;;;;-5.63;86.75;100092.77;1658325;85;21092;-76
2021/12/25 00:38:36;;;;;;;9.50;3.98;;;;;;;-5.64;86.78;100098.30;1658197;85;21151;-81
2021/12/25 00:41:03;;;;;;;11.48;4.45;;;;;;;-5.65;86.61;100102.91;1658498;86;21104;-81
2021/12/25 00:43:29;;;;;;;11.40;5.05;;;;;;;-5.67;86.55;100105.37;1658594;86;21721;-81
2021/12/25 00:45:56;;;;;;;9.73;3.90;;;;;;;-5.68;86.54;100103.97;1658578;85;21084;-81
2021/12/25 00:48:23;;;;;;;13.43;4.65;;;;;;;-5.70;86.48;100115.37;1658613;85;21103;-81
2021/12/25 00:50:49;;;;;;;16.90;7.00;;;;;;;-5.72;86.45;100110.52;1658330;85;21332;-76
2021/12/25 00:53:16;;;;;;;12.43;5.83;;;;;;;-5.75;86.44;100101.69;1658367;85;21111;-76
2021/12/25 00:55:42;;;;;;;36.55;15.10;;;;;;;-5.74;86.40;100118.47;1658223;85;21827;-76
2021/12/25 00:58:09;;;;;;;26.10;10.68;;;;;;;-5.77;86.28;100120.78;1658217;85;21119;-81
2021/12/25 01:00:36;;;;;;;26.65;13.93;;;;;;;-5.79;86.16;100121.45;1658332;86;21127;-80
2021/12/25 01:03:03;;;;;;;28.32;15.43;;;;;;;-5.78;86.27;100122.86;1658268;85;21597;-76
2021/12/25 01:05:29;;;;;;;32.80;19.10;;;;;;;-5.80;86.28;100126.97;1659205;86;21119;-79
2021/12/25 01:07:56;;;;;;;21.05;13.93;;;;;;;-5.81;86.16;100131.97;1659569;85;21782;-80
2021/12/25 01:10:22;;;;;;;13.75;9.30;;;;;;;-5.84;86.07;100133.88;1659570;84;21174;-81
2021/12/25 01:13:01;;;;;;;31.15;15.72;;;;;;;-5.88;86.05;100138.26;1665334;84;21066;-80
2021/12/25 01:15:25;;;;;;;45.35;20.85;;;;;;;-5.90;85.98;100148.78;1633877;86;21371;-80
2021/12/25 01:20:56;;;;;;;56.73;26.62;;;;;;;-5.99;85.69;100153.19;1634516;86;22005;-76
2021/12/25 01:26:04;;;;;;;66.22;26.50;;;;;;;-6.08;85.72;100159.73;1634785;87;21094;-76
2021/12/25 01:31:00;;;;;;;90.92;29.40;;;;;;;-6.16;85.69;100170.65;1634744;86;21724;-76
2021/12/25 01:33:44;;;;;;;74.65;26.68;;;;;;;-6.18;85.72;100167.06;1633385;86;21814;-76
2021/12/25 01:36:31;;;;;;;67.60;24.27;;;;;;;-6.18;85.75;100175.14;1631352;87;21039;-76
2021/12/25 01:39:05;;;;;;;79.67;29.63;;;;;;;-6.20;85.75;100181.81;1631365;86;21110;-75
2021/12/25 01:49:38;;;;;;;47.60;17.65;;;;;;;-6.29;85.73;100205.91;1634580;86;21141;-75
2021/12/25 01:52:05;;;;;;;69.53;27.85;;;;;;;-6.27;85.75;100217.54;1634801;87;21130;-76
2021/12/25 01:54:32;;;;;;;42.48;15.32;;;;;;;-6.29;85.86;100208.83;1634858;86;21682;-75
2021/12/25 01:56:59;;;;;;;35.65;16.32;;;;;;;-6.28;85.87;100211.92;1634704;86;21614;-76
2021/12/25 01:59:26;;;;;;;64.07;26.55;;;;;;;-6.27;85.93;100218.82;1634728;86;21775;-76
2021/12/25 02:01:52;;;;;;;69.55;27.70;;;;;;;-6.26;86.03;100223.19;1634431;87;21714;-75
2021/12/25 02:04:19;;;;;;;47.33;18.17;;;;;;;-6.26;85.97;100223.19;1634617;86;21070;-75
2021/12/25 02:06:46;;;;;;;37.95;14.73;;;;;;;-6.27;85.91;100227.78;1634508;86;21066;-75
2021/12/25 02:09:12;;;;;;;102.58;40.03;;;;;;;-6.26;85.91;100230.87;1634582;87;21098;-76
2021/12/25 02:11:39;;;;;;;76.65;32.23;;;;;;;-6.27;85.95;100228.70;1635309;86;21943;-75
2021/12/25 02:14:06;;;;;;;34.73;15.03;;;;;;;-6.26;85.92;100237.27;1636344;87;21346;-76
2021/12/25 02:16:49;;;;;;;40.52;17.92;;;;;;;-6.26;85.98;100235.59;1636482;87;21086;-75
2021/12/25 02:19:10;;;;;;;51.37;22.00;;;;;;;-6.24;86.06;100237.02;1633018;87;21231;-76
2021/12/25 02:21:35;;;;;;;67.62;28.95;;;;;;;-6.26;85.93;100237.27;1635588;87;21114;-76
2021/12/25 02:24:00;;;;;;;28.80;12.47;;;;;;;-6.27;85.77;100244.07;1636084;86;22646;-75
2021/12/25 02:26:27;;;;;;;33.15;11.22;;;;;;;-6.27;85.77;100244.07;1636158;85;21102;-76
2021/12/25 02:28:54;;;;;;;51.65;23.60;;;;;;;-6.27;85.78;100246.99;1636456;87;21079;-76
2021/12/25 02:31:20;;;;;;;41.08;17.90;;;;;;;-6.26;85.72;100251.36;1636424;85;21330;-75
2021/12/25 02:33:47;;;;;;;21.80;9.83;;;;;;;-6.26;85.80;100250.08;1636515;85;21113;-75
2021/12/25 02:36:13;;;;;;;18.42;7.47;;;;;;;-6.35;85.70;100233.55;1636577;85;21764;-75
2021/12/25 02:38:40;;;;;;;57.05;27.60;;;;;;;-6.27;85.74;100254.31;1667380;84;21763;-75
2021/12/25 02:41:07;;;;;;;30.57;15.13;;;;;;;-6.30;85.63;100248.92;1637527;86;21138;-76
2021/12/25 02:43:33;;;;;;;37.28;16.82;;;;;;;-6.29;85.65;100254.58;1667586;84;20988;-80
2021/12/25 02:46:05;;;;;;;24.77;13.65;;;;;;;-6.28;85.60;100261.87;1638409;84;21117;-81
2021/12/25 02:48:29;;;;;;;30.62;15.85;;;;;;;-6.30;85.53;100257.89;1694509;82;21271;-80
2021/12/25 02:50:55;;;;;;;27.10;15.28;;;;;;;-6.29;85.71;100258.42;1695564;82;21085;-80
2021/12/25 02:53:22;;;;;;;20.82;8.40;;;;;;;-6.27;85.72;100259.80;1695536;82;21097;-80
2021/12/25 02:55:49;;;;;;;14.93;5.72;;;;;;;-6.27;85.66;100259.80;1695470;82;21141;-80
2021/12/25 02:58:19;;;;;;;15.45;8.20;;;;;;;-6.27;85.71;100262.36;1695542;84;21073;-80
2021/12/25 03:00:51;;;;;;;16.62;9.98;;;;;;;-6.28;85.61;100264.43;1695446;84;21764;-75
2021/12/25 03:03:18;;;;;;;19.80;11.12;;;;;;;-6.29;85.53;100269.95;1695653;84;21125;-75
2021/12/25 03:05:45;;;;;;;12.68;5.80;;;;;;;-6.30;85.56;100271.98;1695576;83;21085;-75
2021/12/25 03:08:12;;;;;;;11.55;6.17;;;;;;;-6.31;85.46;100281.69;1695818;82;21086;-80
2021/12/25 03:10:39;;;;;;;9.38;5.20;;;;;;;-6.30;85.53;100279.66;1695511;82;21105;-80
2021/12/25 03:15:46;;;;;;;7.37;3.20;;;;;;;-6.28;85.61;100286.20;1704016;84;21092;-80
2021/12/25 03:18:23;;;;;;;6.25;2.65;;;;;;;-6.27;85.63;100287.61;1704284;83;21072;-79
2021/12/25 03:20:53;;;;;;;8.53;2.45;;;;;;;-6.26;85.62;100285.94;1704236;84;21115;-75
2021/12/25 03:23:21;;;;;;;5.40;2.58;;;;;;;-6.27;85.59;100283.77;1704571;84;21123;-75
2021/12/25 03:25:49;;;;;;;6.75;2.58;;;;;;;-6.28;85.48;100281.08;1704626;84;21728;-75
2021/12/25 03:28:17;;;;;;;7.10;2.58;;;;;;;-6.29;85.40;100289.52;1704093;84;21084;-80
2021/12/25 03:30:44;;;;;;;5.72;2.55;;;;;;;-6.30;85.34;100290.30;1704015;84;21105;-80
2021/12/25 03:33:13;;;;;;;6.78;2.67;;;;;;;-6.30;85.36;100295.42;1704001;82;21207;-80
2021/12/25 03:35:40;;;;;;;8.23;2.47;;;;;;;-6.30;85.41;100296.31;1704060;82;21119;-80
2021/12/25 03:38:10;;;;;;;5.30;2.67;;;;;;;-6.27;85.42;100299.50;1703934;82;21740;-79
2021/12/25 03:40:37;;;;;;;4.53;2.67;;;;;;;-6.27;85.45;100305.55;1704164;82;21155;-79
2021/12/25 03:43:04;;;;;;;6.10;2.60;;;;;;;-6.26;85.42;100306.04;1703640;83;21096;-80
2021/12/25 03:45:32;;;;;;;5.95;2.75;;;;;;;-6.24;85.44;100304.00;1703548;82;21618;-81
2021/12/25 03:57:37;;;;;;;7.58;2.90;;;;;;;-6.24;85.30;100308.73;1690097;84;21088;-81
2021/12/25 03:58:54;;;;;;;5.08;2.33;;;;;;;-6.27;85.17;100306.83;1703693;83;21025;-81
2021/12/25 04:01:30;;;;;;;7.92;3.20;;;;;;;-6.26;85.20;100307.71;1704350;83;21139;-81
2021/12/25 04:06:45;;;;;;;6.97;2.90;;;;;;;-6.19;85.37;100316.79;1703818;83;21052;-78
2021/12/25 04:09:14;;;;;;;6.00;2.85;;;;;;;-6.08;85.72;100318.59;1703724;83;21083;-77
2021/12/25 04:11:40;;;;;;;11.15;3.33;;;;;;;-5.96;85.95;100319.63;1703419;83;21104;-78
2021/12/25 04:14:04;;;;;;;8.70;3.40;;;;;;;-5.82;86.20;100326.23;1703063;84;21044;-77
2021/12/25 04:16:31;;;;;;;10.00;3.42;;;;;;;-5.70;86.25;100325.98;1704025;83;21768;-77
2021/12/25 04:18:57;;;;;;;10.13;4.00;;;;;;;-5.59;86.27;100328.13;1703875;83;21648;-82
2021/12/25 04:21:24;;;;;;;9.03;3.58;;;;;;;-5.46;86.35;100332.23;1704081;83;21095;-81
2021/12/25 04:23:51;;;;;;;8.93;3.87;;;;;;;-5.33;86.40;100326.04;1703755;84;21177;-81
2021/12/25 04:26:20;;;;;;;8.28;3.77;;;;;;;-5.22;86.32;100327.28;1703675;82;21127;-81
2021/12/25 04:29:00;;;;;;;8.05;2.85;;;;;;;-5.17;86.01;100332.00;1703476;82;21756;-80
2021/12/25 05:03:56;;;;;;;10.20;2.72;;;;;;;-5.02;85.42;100351.59;1675557;85;21115;-79
2021/12/25 05:06:22;;;;;;;5.80;2.27;;;;;;;-4.91;85.41;100359.76;1675441;85;21107;-80
2021/12/25 05:08:49;;;;;;;7.17;2.42;;;;;;;-4.85;85.45;100355.50;1675619;85;23298;-80
2021/12/25 05:11:18;;;;;;;7.42;2.92;;;;;;;-4.78;85.40;100358.19;1675616;85;21099;-79
2021/12/25 05:13:48;;;;;;;5.05;2.62;;;;;;;-4.77;85.13;100356.11;1675349;84;21147;-80
2021/12/25 05:16:13;;;;;;;6.95;2.52;;;;;;;-4.80;84.94;100363.19;1675482;85;21281;-80
2021/12/25 05:18:40;;;;;;;9.38;2.83;;;;;;;-4.75;85.12;100356.75;1675673;84;21123;-80
2021/12/25 05:21:08;;;;;;;7.65;2.50;;;;;;;-4.69;85.12;100366.22;1675908;84;21797;-80
2021/12/25 05:23:37;;;;;;;9.85;2.35;;;;;;;-4.71;84.79;100356.22;1675715;85;21108;-81
2021/12/25 05:26:04;;;;;;;5.78;2.22;;;;;;;-4.69;84.97;100363.66;1675878;85;21143;-80
2021/12/25 05:28:39;;;;;;;5.17;2.30;;;;;;;-4.65;85.05;100357.09;1675645;84;21100;-81
2021/12/25 05:31:00;;;;;;;6.08;1.90;;;;;;;-4.62;84.96;100357.31;1674778;85;21625;-80
2021/12/25 05:33:26;;;;;;;8.25;2.27;;;;;;;-4.59;84.99;100355.39;1675896;85;21773;-81
2021/12/25 05:35:53;;;;;;;4.90;2.02;;;;;;;-4.61;84.58;100367.22;1675730;84;21569;-81
2021/12/25 05:38:20;;;;;;;7.17;2.50;;;;;;;-4.66;84.28;100368.52;1675840;85;21630;-81
2021/12/25 05:40:46;;;;;;;5.67;2.05;;;;;;;-4.61;84.62;100373.64;1675810;84;21111;-80
2021/12/25 05:43:13;;;;;;;5.42;2.58;;;;;;;-4.49;84.98;100372.02;1675932;85;21127;-81
2021/12/25 05:45:40;;;;;;;5.00;2.05;;;;;;;-4.40;84.94;100377.88;1675398;85;21836;-81
2021/12/25 05:48:07;;;;;;;6.00;2.30;;;;;;;-4.40;84.68;100373.14;1675689;85;21665;-81
2021/12/25 05:50:33;;;;;;;4.40;2.15;;;;;;;-4.40;84.58;100375.70;1675977;84;21127;-80
2021/12/25 05:53:00;;;;;;;9.00;2.30;;;;;;;-4.38;84.60;100380.17;1675999;84;21104;-81
2021/12/25 05:55:27;;;;;;;4.78;2.22;;;;;;;-4.36;84.59;100382.47;1675889;84;21115;-82
2021/12/25 05:57:53;;;;;;;5.47;2.75;;;;;;;-4.41;84.31;100373.90;1675695;85;21794;-82
2021/12/25 06:00:23;;;;;;;154.87;49.85;;;;;;;-4.49;83.98;100383.58;1675770;84;21132;-82
2021/12/25 06:02:50;;;;;;;48.98;19.60;;;;;;;-4.59;83.70;100376.83;1675872;84;21384;-80
2021/12/25 06:05:17;;;;;;;17.23;6.83;;;;;;;-4.71;83.47;100379.69;1676092;85;21186;-81
2021/12/25 06:07:44;;;;;;;15.88;7.15;;;;;;;-4.80;83.41;100383.73;1676218;84;21986;-81
2021/12/25 06:10:11;;;;;;;18.25;9.10;;;;;;;-4.87;83.48;100384.41;1676113;85;22424;-82
2021/12/25 06:12:39;;;;;;;16.37;8.58;;;;;;;-4.93;83.49;100393.40;1675663;85;21071;-80
2021/12/25 06:15:10;;;;;;;11.25;5.60;;;;;;;-4.99;83.51;100397.13;1675655;84;21111;-80
2021/12/25 06:17:37;;;;;;;12.70;7.80;;;;;;;-5.03;83.52;100399.86;1675907;84;21206;-80
2021/12/25 06:20:05;;;;;;;16.67;8.50;;;;;;;-5.07;83.62;100402.92;1675929;85;21680;-81
2021/12/25 06:22:32;;;;;;;13.15;6.12;;;;;;;-5.12;83.53;100400.39;1676078;85;21773;-81
2021/12/25 06:24:59;;;;;;;8.50;4.40;;;;;;;-5.18;83.45;100405.00;1675806;85;21112;-81
2021/12/25 06:27:25;;;;;;;12.05;4.90;;;;;;;-5.23;83.44;100410.17;1676004;84;21092;-81
2021/12/25 06:29:52;;;;;;;15.20;9.60;;;;;;;-5.29;83.45;100406.32;1675791;85;21787;-81
2021/12/25 06:32:19;;;;;;;11.12;5.85;;;;;;;-5.33;83.46;100406.84;1675888;85;21144;-81
2021/12/25 06:34:46;;;;;;;11.78;6.90;;;;;;;-5.37;83.47;100408.62;1675893;84;21753;-80
2021/12/25 06:37:13;;;;;;;14.28;8.35;;;;;;;-5.41;83.45;100412.11;1675899;84;21298;-82
2021/12/25 06:39:40;;;;;;;18.02;9.05;;;;;;;-5.54;83.38;100403.37;1675928;84;21107;-82
2021/12/25 06:42:08;;;;;;;17.35;10.08;;;;;;;-5.49;83.42;100416.20;1675949;85;21099;-83
2021/12/25 06:44:35;;;;;;;11.85;7.55;;;;;;;-5.52;83.45;100417.26;1676264;84;21123;-83
2021/12/25 06:47:02;;;;;;;10.90;6.35;;;;;;;-5.55;83.45;100426.36;1675882;84;21753;-81
2021/12/25 06:49:29;;;;;;;11.08;6.20;;;;;;;-5.57;83.50;100425.34;1676010;85;21652;-81
2021/12/25 06:51:56;;;;;;;11.15;5.40;;;;;;;-5.57;83.56;100424.95;1676159;85;21095;-81
2021/12/25 06:54:22;;;;;;;6.37;2.80;;;;;;;-5.71;83.54;100408.39;1676274;85;21116;-81
2021/12/25 06:56:49;;;;;;;5.12;2.40;;;;;;;-5.57;83.73;100427.91;1676028;85;21100;-81
2021/12/25 06:59:16;;;;;;;8.30;2.30;;;;;;;-5.58;83.61;100437.63;1676112;85;21800;-82
2021/12/25 07:01:43;;;;;;;7.33;2.55;;;;;;;-5.57;83.70;100438.16;1652621;85;21091;-82
2021/12/25 07:04:10;;;;;;;4.12;2.12;;;;;;;-5.51;83.93;100438.66;1665583;85;21044;-83
2021/12/25 07:06:37;;;;;;;33.65;16.55;;;;;;;-5.47;84.00;100431.34;1665679;84;21048;-82
2021/12/25 07:09:05;;;;;;;5.20;3.27;;;;;;;-5.41;84.09;100433.52;1665549;84;21106;-84
2021/12/25 07:11:32;;;;;;;5.75;2.95;;;;;;;-5.32;84.21;100440.69;1665491;85;21829;-83
2021/12/25 07:14:01;;;;;;;4.58;2.10;;;;;;;-5.23;84.31;100444.41;1641198;86;21662;-83
2021/12/25 07:16:27;;;;;;;4.50;2.35;;;;;;;-5.14;84.31;100443.89;1657761;86;21101;-83
2021/12/25 07:18:54;;;;;;;7.30;2.83;;;;;;;-5.06;84.28;100444.52;1657871;85;21171;-76
2021/12/25 07:21:20;;;;;;;5.60;2.85;;;;;;;-4.98;84.27;100444.73;1657614;85;21138;-78
2021/12/25 07:23:47;;;;;;;8.75;2.70;;;;;;;-4.91;84.42;100441.91;1657446;86;22554;-77
2021/12/25 07:26:17;;;;;;;43.25;20.40;;;;;;;-4.79;84.45;100447.13;1657686;85;21146;-82
2021/12/25 07:28:42;;;;;;;10.35;3.83;;;;;;;-4.74;84.28;100444.55;1657724;85;21146;-83
2021/12/25 07:31:09;;;;;;;8.58;3.08;;;;;;;-4.70;84.13;100441.45;1657652;86;21567;-77
2021/12/25 07:33:37;;;;;;;5.58;2.37;;;;;;;-4.68;83.99;100444.14;1657758;85;21114;-81
2021/12/25 07:36:04;;;;;;;5.78;2.80;;;;;;;-4.69;83.79;100443.26;1666372;84;21745;-84
2021/12/25 07:38:30;;;;;;;4.40;2.17;;;;;;;-4.68;83.68;100448.00;1658199;86;21112;-83
2021/12/25 07:40:57;;;;;;;7.12;3.17;;;;;;;-4.68;83.60;100453.13;1658098;84;21100;-83
2021/12/25 07:43:24;;;;;;;8.13;3.52;;;;;;;-4.69;83.54;100453.92;1639219;86;21124;-83
2021/12/25 07:45:52;;;;;;;36.55;16.65;;;;;;;-4.70;83.48;100452.12;1658192;85;21139;-83
2021/12/25 07:48:20;;;;;;;18.80;7.62;;;;;;;-4.71;83.45;100452.52;1658219;84;21766;-82
2021/12/25 07:50:48;;;;;;;16.05;6.58;;;;;;;-4.72;83.28;100453.67;1658265;86;21187;-83
2021/12/25 07:53:16;;;;;;;15.60;6.12;;;;;;;-4.68;83.68;100458.27;1658634;85;21091;-84
2021/12/25 07:55:51;;;;;;;14.00;5.60;;;;;;;-4.65;83.70;100446.97;1658206;85;21116;-83
2021/12/25 07:58:16;;;;;;;9.20;4.17;;;;;;;-4.64;83.43;100449.14;1657241;85;21097;-81
2021/12/25 08:00:43;;;;;;;9.78;4.35;;;;;;;-4.64;83.44;100450.03;1658393;84;21807;-83
2021/12/25 08:03:09;;;;;;;10.50;4.25;;;;;;;-4.61;83.38;100449.01;1658018;86;21112;-82
2021/12/25 08:05:36;;;;;;;9.33;3.90;;;;;;;-4.58;83.47;100445.41;1658180;84;21096;-80
2021/12/25 08:08:03;;;;;;;12.65;5.50;;;;;;;-4.52;83.59;100457.45;1657990;84;21131;-83
2021/12/25 08:10:31;;;;;;;24.63;11.12;;;;;;;-4.47;83.74;100452.66;1657982;85;21143;-83
2021/12/25 08:12:58;;;;;;;21.55;6.72;;;;;;;-4.40;83.93;100464.34;1658773;85;21783;-83
2021/12/25 08:15:28;;;;;;;10.82;4.60;;;;;;;-4.33;84.21;100466.63;1662555;84;21111;-85
2021/12/25 08:17:56;;;;;;;11.35;4.37;;;;;;;-4.26;84.14;100475.70;1663047;84;21115;-83
2021/12/25 08:20:23;;;;;;;17.65;6.17;;;;;;;-4.22;84.08;100476.09;1663056;84;21108;-83
2021/12/25 08:22:50;;;;;;;12.95;5.67;;;;;;;-4.17;83.96;100480.28;1662477;86;21198;-84
2021/12/25 08:25:17;;;;;;;12.53;4.72;;;;;;;-4.13;83.94;100484.52;1662660;85;21765;-85
2021/12/25 08:27:45;;;;;;;11.60;4.50;;;;;;;-4.08;83.85;100481.41;1662442;84;21123;-83
2021/12/25 08:30:15;;;;;;;9.58;4.17;;;;;;;-4.00;83.82;100488.04;1662451;84;21081;-81
2021/12/25 08:32:42;;;;;;;11.68;4.20;;;;;;;-3.74;84.48;100493.93;1662451;84;21119;-81
2021/12/25 08:35:11;;;;;;;9.70;4.28;;;;;;;-3.36;85.08;100498.17;1662102;84;21142;-81
2021/12/25 08:37:37;;;;;;;7.25;4.08;;;;;;;-3.11;85.34;100490.12;1662662;86;21767;-82
2021/12/25 08:40:06;;;;;;;9.00;4.72;;;;;;;-3.00;85.27;100495.69;1661746;86;21084;-81
2021/12/25 08:42:32;;;;;;;9.80;4.10;;;;;;;-2.92;85.29;100497.14;1662593;84;21146;-82
2021/12/25 08:47:30;;;;;;;10.93;5.50;;;;;;;-2.60;85.13;100486.62;1662663;86;21127;-82
2021/12/25 08:49:57;;;;;;;11.48;5.60;;;;;;;-2.56;85.03;100489.92;1661939;86;23608;-81
2021/12/25 08:52:24;;;;;;;15.80;7.60;;;;;;;-2.58;84.62;100490.61;1662758;86;21123;-82
2021/12/25 08:54:51;;;;;;;15.08;6.30;;;;;;;-2.64;84.31;100505.23;1662764;84;21108;-82
2021/12/25 08:57:20;;;;;;;11.10;5.67;;;;;;;-2.71;84.03;100505.95;1662375;84;21247;-82
2021/12/25 08:59:47;;;;;;;10.98;5.55;;;;;;;-2.80;84.02;100512.20;1661335;85;21138;-82
2021/12/25 09:02:16;;;;;;;11.95;5.75;;;;;;;-2.82;84.01;100521.50;1662299;84;21865;-83
2021/12/25 09:04:44;;;;;;;8.68;4.95;;;;;;;-2.82;83.98;100516.75;1662420;86;21108;-81
2021/12/25 09:07:11;;;;;;;10.70;5.12;;;;;;;-2.78;84.12;100518.39;1662084;85;21624;-82
2021/12/25 09:09:38;;;;;;;9.93;4.67;;;;;;;-2.72;84.09;100526.05;1662163;86;21135;-81
2021/12/25 09:12:08;;;;;;;11.08;4.97;;;;;;;-2.68;84.16;100534.13;1662028;86;21143;-81
2021/12/25 09:14:37;;;;;;;9.45;4.65;;;;;;;-2.64;84.22;100527.13;1651920;84;21787;-81
2021/12/25 09:17:04;;;;;;;16.12;8.68;;;;;;;-2.58;84.17;100531.84;1605891;89;21101;-81
2021/12/25 09:19:31;;;;;;;14.55;5.75;;;;;;;-2.43;84.50;100530.78;1632457;87;21125;-79
2021/12/25 09:21:58;;;;;;;13.65;7.17;;;;;;;-2.28;84.65;100530.60;1657952;86;21204;-80
2021/12/25 09:24:25;;;;;;;15.58;6.25;;;;;;;-2.16;84.81;100534.08;1658167;86;21181;-82
2021/12/25 09:26:51;;;;;;;11.75;4.80;;;;;;;-2.04;85.07;100529.30;1658125;85;23144;-82
2021/12/25 09:29:18;;;;;;;13.68;6.33;;;;;;;-1.98;85.03;100528.03;1662738;85;21148;-81
2021/12/25 09:31:45;;;;;;;29.00;17.70;;;;;;;-1.99;84.74;100522.77;1665306;85;21095;-79
2021/12/25 09:34:12;;;;;;;10.85;6.28;;;;;;;-2.03;84.50;100515.20;1632391;87;21659;-82
2021/12/25 09:36:38;;;;;;;13.10;6.87;;;;;;;-2.10;84.10;100524.97;1658204;86;21068;-81
2021/12/25 09:39:06;;;;;;;10.23;4.33;;;;;;;-2.16;84.06;100529.29;1658351;85;22450;-82
2021/12/25 09:41:33;;;;;;;8.68;4.28;;;;;;;-2.18;84.03;100531.79;1658247;85;21108;-82
2021/12/25 09:44:03;;;;;;;9.75;4.47;;;;;;;-2.13;84.22;100525.66;1658499;86;21131;-84
2021/12/25 09:46:30;;;;;;;10.58;4.65;;;;;;;-2.03;84.47;100532.36;1656079;85;21095;-86
2021/12/25 09:48:56;;;;;;;9.88;4.37;;;;;;;-1.95;84.50;100531.25;1658740;86;21107;-84
2021/12/25 09:51:23;;;;;;;9.83;4.33;;;;;;;-1.88;84.49;100534.73;1658938;85;21864;-87
2021/12/25 09:54:09;;;;;;;10.05;5.00;;;;;;;-1.77;84.65;100538.97;1658619;86;21111;-87
2021/12/25 09:56:38;;;;;;;10.43;4.67;;;;;;;-1.64;84.65;100539.45;1606954;89;21149;-84
2021/12/25 09:59:06;;;;;;;7.37;4.20;;;;;;;-1.54;84.56;100542.67;1633176;87;21093;-86
2021/12/25 10:01:42;;;;;;;8.45;4.05;;;;;;;-1.46;84.59;100548.88;1658741;85;21624;-86
2021/12/25 10:04:15;;;;;;;7.10;3.87;;;;;;;-1.31;84.83;100554.62;1658795;86;21769;-86
2021/12/25 10:06:45;;;;;;;7.05;3.90;;;;;;;-1.29;84.68;100559.09;1641599;86;21123;-86
2021/12/25 10:09:15;;;;;;;16.65;8.45;;;;;;;-1.34;84.66;100551.41;1658684;86;21140;-84
2021/12/25 10:12:08;;;;;;;7.05;3.12;;;;;;;-1.38;84.73;100550.30;1658593;86;21143;-81
2021/12/25 10:14:43;;;;;;;10.63;4.60;;;;;;;-1.38;84.98;100551.59;1658446;85;21104;-84
2021/12/25 10:17:16;;;;;;;14.45;10.75;;;;;;;-1.41;85.10;100550.11;1655964;86;21258;-84
2021/12/25 10:19:43;;;;;;;10.82;7.50;;;;;;;-1.43;85.16;100540.03;1633020;86;21106;-83
2021/12/25 10:22:11;;;;;;;13.30;8.85;;;;;;;-1.40;85.25;100541.95;1658548;85;21120;-84
2021/12/25 10:24:50;;;;;;;11.40;7.45;;;;;;;-1.33;85.33;100543.26;1658400;85;21677;-82
2021/12/25 10:27:20;;;;;;;33.33;18.57;;;;;;;-1.29;85.27;100543.59;1673036;83;21152;-82
2021/12/25 10:29:47;;;;;;;8.40;4.70;;;;;;;-1.24;85.36;100546.11;1689899;83;22689;-82
2021/12/25 10:32:24;;;;;;;10.03;4.53;;;;;;;-1.22;85.14;100544.89;1685963;85;21122;-83
2021/12/25 10:34:51;;;;;;;11.20;5.47;;;;;;;-1.27;84.86;100539.42;1685800;84;21682;-80
2021/12/25 10:37:19;;;;;;;22.85;12.55;;;;;;;-1.35;84.52;100540.97;1686153;85;21266;-82
2021/12/25 10:39:46;;;;;;;11.75;5.55;;;;;;;-1.45;84.32;100541.63;1684369;85;21134;-81
2021/12/25 10:42:18;;;;;;;11.38;5.00;;;;;;;-1.51;84.17;100545.48;1676459;85;21797;-81
2021/12/25 10:44:52;;;;;;;11.12;5.47;;;;;;;-1.63;83.99;100537.38;1678650;85;21142;-81
2021/12/25 10:47:22;;;;;;;7.60;4.75;;;;;;;-1.70;83.89;100539.43;1682665;85;21062;-81
2021/12/25 10:50:02;;;;;;;13.15;8.45;;;;;;;-1.78;83.96;100539.78;1658927;85;21113;-80
2021/12/25 10:52:40;;;;;;;10.53;5.58;;;;;;;-1.85;83.97;100531.09;1641745;83;21355;-80
2021/12/25 10:55:16;;;;;;;9.33;4.65;;;;;;;-1.92;83.82;100535.31;1686446;83;22479;-84
2021/12/25 10:57:47;;;;;;;18.52;10.13;;;;;;;-1.97;83.89;100536.30;1698616;83;21085;-80
2021/12/25 11:00:24;;;;;;;10.90;7.53;;;;;;;-1.97;84.05;100535.00;1714904;83;20996;-83
2021/12/25 11:03:00;;;;;;;11.57;8.03;;;;;;;-1.96;84.11;100543.62;1715588;83;21113;-84
2021/12/25 11:05:40;;;;;;;12.25;6.85;;;;;;;-1.96;84.28;100539.76;1715553;83;21085;-83
2021/12/25 11:08:15;;;;;;;9.73;5.67;;;;;;;-2.00;84.07;100548.06;1713922;83;21248;-83
2021/12/25 11:10:50;;;;;;;12.90;7.55;;;;;;;-2.05;84.01;100544.25;1710336;83;21074;-82
2021/12/25 11:13:26;;;;;;;9.15;4.53;;;;;;;-2.09;83.93;100548.30;1684117;85;21618;-81
2021/12/25 11:16:02;;;;;;;9.78;6.55;;;;;;;-2.15;83.84;100546.57;1720127;83;21074;-83
2021/12/25 11:18:25;;;;;;;9.43;4.95;;;;;;;-2.19;83.85;100554.47;1719754;82;21507;-83
2021/12/25 11:20:51;;;;;;;9.90;4.67;;;;;;;-2.26;83.69;100553.92;1700757;82;21708;-84
2021/12/25 11:23:18;;;;;;;12.73;4.85;;;;;;;-2.33;83.59;100555.55;1683859;84;21088;-85
2021/12/25 11:25:45;;;;;;;16.23;6.10;;;;;;;-2.38;83.67;100564.24;1691207;83;21085;-82
2021/12/25 11:28:18;;;;;;;19.32;8.28;;;;;;;-2.41;83.62;100564.89;1691460;84;21145;-81
2021/12/25 11:30:45;;;;;;;16.97;6.60;;;;;;;-2.43;83.65;100568.16;1690175;84;21110;-82
2021/12/25 11:33:11;;;;;;;12.37;5.78;;;;;;;-2.41;83.83;100567.88;1691152;82;22112;-83
2021/12/25 11:35:38;;;;;;;14.38;5.28;;;;;;;-2.40;83.80;100563.23;1691423;83;21038;-83
2021/12/25 11:38:06;;;;;;;11.03;5.67;;;;;;;-2.41;83.65;100561.43;1691310;82;21519;-81
2021/12/25 11:40:36;;;;;;;12.50;6.37;;;;;;;-2.44;83.61;100559.53;1691197;84;21093;-82
2021/12/25 11:43:04;;;;;;;12.13;6.45;;;;;;;-2.44;83.66;100556.95;1691758;83;21054;-82
2021/12/25 11:45:36;;;;;;;13.32;7.35;;;;;;;-2.44;83.72;100557.33;1691429;83;21726;-82
2021/12/25 11:48:18;;;;;;;20.90;11.55;;;;;;;-2.39;83.84;100568.48;1690929;84;21066;-82
2021/12/25 11:50:48;;;;;;;17.00;6.58;;;;;;;-2.33;83.96;100568.03;1672562;84;21099;-82
2021/12/25 11:53:26;;;;;;;14.70;6.28;;;;;;;-2.23;84.16;100572.20;1690745;83;21528;-81
2021/12/25 11:58:49;;;;;;;15.20;7.60;;;;;;;-2.05;84.17;100568.75;1690693;83;21751;-82
2021/12/25 12:01:43;;;;;;;12.03;5.15;;;;;;;-1.97;84.24;100572.80;1691055;84;21070;-80
2021/12/25 12:04:15;;;;;;;16.10;5.78;;;;;;;-1.89;84.18;100582.38;1691027;82;21607;-81
2021/12/25 12:06:53;;;;;;;13.70;6.22;;;;;;;-1.85;84.10;100574.95;1691393;82;21105;-82
2021/12/25 12:09:20;;;;;;;14.68;6.33;;;;;;;-1.86;83.79;100573.55;1691239;84;21143;-82
2021/12/25 12:12:19;;;;;;;11.60;6.05;;;;;;;-1.89;83.75;100568.19;1691156;84;22709;-81
2021/12/25 12:14:47;;;;;;;15.75;6.50;;;;;;;-1.88;83.77;100569.56;1692380;82;21557;-83
2021/12/25 12:17:19;;;;;;;13.75;6.20;;;;;;;-1.89;83.64;100569.48;1666467;84;21112;-83
2021/12/25 12:19:48;;;;;;;11.70;5.15;;;;;;;-1.90;83.61;100563.80;1694305;83;21089;-83
2021/12/25 12:22:36;;;;;;;12.68;6.22;;;;;;;-1.91;83.53;100560.73;1695706;84;21101;-82
2021/12/25 12:25:28;;;;;;;12.70;5.60;;;;;;;-2.04;83.47;100539.61;1694231;82;21760;-82
2021/12/25 12:27:59;;;;;;;14.80;5.75;;;;;;;-1.94;83.44;100573.00;1695044;82;21152;-82
2021/12/25 12:30:39;;;;;;;13.48;6.75;;;;;;;-1.95;83.38;100571.23;1695681;82;21602;-77
2021/12/25 12:33:23;;;;;;;14.23;5.45;;;;;;;-1.96;83.46;100575.87;1695344;82;21234;-77
2021/12/25 12:35:51;;;;;;;15.32;6.17;;;;;;;-1.97;83.60;100581.43;1695455;82;21721;-77
2021/12/25 12:38:48;;;;;;;17.35;6.35;;;;;;;-1.98;83.48;100586.07;1695481;84;21740;-77
2021/12/25 12:41:27;;;;;;;15.20;6.25;;;;;;;-1.98;83.48;100592.52;1695068;82;21034;-77